createdAt,value
2018-07-06T00:02:03.624Z,17.67
2018-07-06T00:07:18.343Z,17.58
2018-07-06T00:12:33.185Z,17.55
2018-07-06T00:17:48.102Z,17.49
2018-07-06T00:23:02.640Z,17.32
2018-07-06T00:28:17.607Z,17.16
2018-07-06T00:33:32.334Z,17.20
2018-07-06T00:38:47.321Z,17.02
2018-07-06T00:44:01.964Z,16.98
2018-07-06T00:49:16.902Z,16.90
2018-07-06T00:54:31.713Z,16.82
2018-07-06T00:59:46.823Z,16.73
2018-07-06T01:05:01.638Z,16.67
2018-07-06T01:10:17.318Z,16.65
2018-07-06T01:15:35.184Z,16.65
2018-07-06T01:20:49.817Z,16.59
2018-07-06T01:26:04.556Z,16.43
2018-07-06T01:31:19.325Z,16.40
2018-07-06T01:36:34.151Z,16.59
2018-07-06T01:41:49.229Z,16.69
2018-07-06T01:47:04.206Z,16.83
2018-07-06T01:52:18.826Z,16.84
2018-07-06T01:57:33.606Z,16.90
2018-07-06T02:02:52.301Z,16.95
2018-07-06T02:08:08.793Z,17.00
2018-07-06T02:13:23.457Z,17.01
2018-07-06T02:18:38.210Z,17.05
2018-07-06T02:23:52.993Z,16.94
2018-07-06T02:29:07.847Z,16.99
2018-07-06T02:34:23.372Z,16.97
2018-07-06T02:39:38.068Z,16.92
2018-07-06T02:44:53.024Z,16.99
2018-07-06T02:50:07.902Z,17.08
2018-07-06T02:55:22.640Z,17.16
2018-07-06T03:00:37.929Z,17.17
2018-07-06T03:05:52.727Z,17.04
2018-07-06T03:11:07.833Z,17.15
2018-07-06T03:16:22.913Z,17.10
2018-07-06T03:21:37.743Z,17.10
2018-07-06T03:26:53.244Z,17.25
2018-07-06T03:32:08.195Z,17.21
2018-07-06T03:37:22.840Z,17.27
2018-07-06T03:42:37.727Z,17.26
2018-07-06T03:47:52.563Z,17.31
2018-07-06T03:53:07.378Z,17.21
2018-07-06T03:58:22.233Z,17.29
2018-07-06T04:03:37.253Z,17.42
2018-07-06T04:08:52.067Z,17.40
2018-07-06T04:14:06.820Z,17.46
2018-07-06T04:19:21.617Z,17.54
2018-07-06T04:24:36.411Z,17.52
2018-07-06T04:29:51.217Z,17.59
2018-07-06T04:35:06.735Z,17.51
2018-07-06T04:40:21.555Z,17.51
2018-07-06T04:45:36.281Z,17.51
2018-07-06T04:50:50.990Z,17.59
2018-07-06T04:56:05.710Z,17.91
2018-07-06T05:01:20.722Z,17.94
2018-07-06T05:06:35.451Z,17.88
2018-07-06T05:11:50.177Z,17.85
2018-07-06T05:17:05.063Z,17.86
2018-07-06T05:22:19.925Z,17.73
2018-07-06T05:27:35.345Z,17.67
2018-07-06T05:32:50.082Z,17.68
2018-07-06T05:38:05.281Z,17.85
2018-07-06T05:43:20.178Z,17.83
2018-07-06T05:48:35.040Z,17.85
2018-07-06T05:53:49.814Z,17.86
2018-07-06T05:59:05.069Z,17.88
2018-07-06T06:04:20.777Z,17.72
2018-07-06T06:09:25.185Z,17.73
2018-07-06T06:14:29.187Z,17.72
2018-07-06T06:19:32.749Z,17.55
2018-07-06T06:24:36.256Z,17.57
2018-07-06T06:29:40.146Z,17.64
2018-07-06T06:34:43.868Z,17.75
2018-07-06T06:39:48.118Z,17.77
2018-07-06T06:44:51.816Z,17.82
2018-07-06T06:49:55.781Z,17.98
2018-07-06T06:54:59.797Z,18.06
2018-07-06T07:00:03.398Z,18.14
2018-07-06T07:05:07.583Z,18.01
2018-07-06T07:10:11.143Z,18.10
2018-07-06T07:15:14.632Z,18.40
2018-07-06T07:20:18.203Z,18.51
2018-07-06T07:25:21.809Z,18.65
2018-07-06T07:30:29.777Z,18.92
2018-07-06T07:35:33.357Z,19.01
2018-07-06T07:40:37.429Z,19.16
2018-07-06T07:45:41.037Z,19.36
2018-07-06T07:50:56.723Z,19.51
2018-07-06T07:56:00.474Z,19.68
2018-07-06T08:01:04.263Z,19.68
2018-07-06T08:06:07.642Z,19.73
2018-07-06T08:11:11.962Z,19.90
2018-07-06T08:16:15.512Z,19.72
2018-07-06T08:21:20.004Z,19.77
2018-07-06T08:26:23.505Z,19.69
2018-07-06T08:31:27.210Z,19.87
2018-07-06T08:37:44.229Z,20.13
2018-07-06T08:42:49.603Z,20.52
2018-07-06T08:47:53.269Z,21.07
2018-07-06T08:52:57.366Z,21.37
2018-07-06T08:58:01.723Z,21.61
2018-07-06T09:03:05.776Z,21.78
2018-07-06T09:08:09.541Z,21.39
2018-07-06T09:13:13.705Z,20.98
2018-07-06T09:18:17.393Z,21.19
2018-07-06T09:23:20.957Z,21.48
2018-07-06T09:28:25.511Z,21.52
2018-07-06T09:33:29.356Z,22.22
2018-07-06T09:38:32.866Z,22.85
2018-07-06T09:43:36.572Z,22.67
2018-07-06T09:48:40.590Z,22.75
2018-07-06T09:53:44.300Z,22.67
2018-07-06T09:58:47.854Z,23.15
2018-07-06T10:03:52.162Z,23.67
2018-07-06T10:08:56.537Z,23.34
2018-07-06T10:14:00.156Z,23.43
2018-07-06T10:19:03.690Z,23.94
2018-07-06T10:24:07.317Z,23.79
2018-07-06T10:30:26.813Z,23.36
2018-07-06T10:35:30.528Z,23.36
2018-07-06T10:40:34.137Z,23.93
2018-07-06T10:45:37.699Z,23.81
2018-07-06T10:50:41.259Z,23.75
2018-07-06T10:55:44.847Z,24.25
2018-07-06T11:00:48.333Z,24.30
2018-07-06T11:05:52.782Z,24.78
2018-07-06T11:10:56.469Z,25.28
2018-07-06T11:16:00.050Z,24.73
2018-07-06T11:21:04.412Z,24.67
2018-07-06T11:26:08.501Z,24.99
2018-07-06T11:31:12.008Z,24.86
2018-07-06T11:36:15.694Z,24.55
2018-07-06T11:41:19.212Z,24.75
2018-07-06T11:46:23.622Z,25.28
2018-07-06T11:51:27.262Z,25.30
2018-07-06T11:56:30.835Z,25.55
2018-07-06T12:01:34.386Z,25.36
2018-07-06T12:06:37.974Z,25.26
2018-07-06T12:11:41.496Z,25.32
2018-07-06T12:16:45.085Z,25.23
2018-07-06T12:21:49.323Z,25.67
2018-07-06T12:26:52.923Z,25.63
2018-07-06T12:31:56.439Z,25.45
2018-07-06T12:37:03.488Z,25.45
2018-07-06T12:42:06.996Z,25.48
2018-07-06T12:47:10.595Z,25.90
2018-07-06T12:52:14.328Z,26.07
2018-07-06T12:57:18.973Z,25.79
2018-07-06T13:02:22.592Z,26.03
2018-07-06T13:07:26.225Z,26.02
2018-07-06T13:12:29.805Z,25.92
2018-07-06T13:17:33.679Z,26.59
2018-07-06T13:22:37.427Z,26.63
2018-07-06T13:27:41.019Z,27.14
2018-07-06T13:32:44.606Z,27.01
2018-07-06T13:37:48.699Z,26.27
2018-07-06T13:42:52.201Z,26.17
2018-07-06T13:47:55.795Z,26.01
2018-07-06T13:52:59.356Z,26.05
2018-07-06T13:58:02.929Z,26.46
2018-07-06T14:03:06.577Z,26.49
2018-07-06T14:08:10.449Z,26.05
2018-07-06T14:13:14.230Z,25.64
2018-07-06T14:18:17.846Z,25.63
2018-07-06T14:23:22.202Z,26.00
2018-07-06T14:28:26.141Z,26.15
2018-07-06T14:33:29.652Z,26.37
2018-07-06T14:38:33.433Z,26.54
2018-07-06T14:43:36.932Z,26.65
2018-07-06T14:48:41.078Z,26.78
2018-07-06T14:53:44.599Z,26.90
2018-07-06T14:58:48.174Z,26.90
2018-07-06T15:03:51.772Z,27.07
2018-07-06T15:08:55.432Z,26.98
2018-07-06T15:13:58.944Z,26.98
2018-07-06T15:19:03.384Z,26.79
2018-07-06T15:24:08.006Z,26.93
2018-07-06T15:29:11.834Z,26.74
2018-07-06T15:34:15.326Z,26.40
2018-07-06T15:39:19.528Z,26.58
2018-07-06T15:44:23.040Z,26.76
2018-07-06T15:49:26.877Z,26.69
2018-07-06T15:54:30.960Z,26.74
2018-07-06T15:59:34.617Z,26.55
2018-07-06T16:04:39.595Z,26.29
2018-07-06T16:09:44.085Z,26.35
2018-07-06T16:14:47.645Z,25.81
2018-07-06T16:19:52.621Z,25.84
2018-07-06T16:24:58.318Z,25.60
2018-07-06T16:30:02.360Z,25.54
2018-07-06T16:35:06.005Z,25.75
2018-07-06T16:40:09.838Z,25.92
2018-07-06T16:45:13.498Z,26.82
2018-07-06T16:50:17.066Z,27.92
2018-07-06T16:55:21.140Z,27.55
2018-07-06T17:00:29.084Z,26.83
2018-07-06T17:05:32.704Z,26.37
2018-07-06T17:10:37.942Z,26.15
2018-07-06T17:15:41.691Z,26.13
2018-07-06T17:20:45.672Z,25.61
2018-07-06T17:25:49.162Z,25.07
2018-07-06T17:30:53.633Z,24.95
2018-07-06T17:35:57.208Z,24.74
2018-07-06T17:41:00.999Z,24.54
2018-07-06T17:46:05.282Z,24.44
2018-07-06T17:51:08.931Z,24.31
2018-07-06T17:56:12.709Z,24.11
2018-07-06T18:01:16.429Z,24.15
2018-07-06T18:06:20.061Z,24.15
2018-07-06T18:11:23.725Z,24.15
2018-07-06T18:16:27.292Z,24.05
2018-07-06T18:21:31.322Z,23.98
2018-07-06T18:26:34.849Z,24.07
2018-07-06T18:31:38.381Z,23.77
2018-07-06T18:36:41.954Z,23.59
2018-07-06T18:41:46.046Z,23.45
2018-07-06T18:46:49.939Z,23.29
2018-07-06T18:51:53.731Z,23.20
2018-07-06T18:56:57.421Z,23.06
2018-07-06T19:02:01.009Z,22.83
2018-07-06T19:07:04.567Z,22.66
2018-07-06T19:12:08.153Z,22.39
2018-07-06T19:17:12.211Z,22.18
2018-07-06T19:22:15.761Z,22.10
2018-07-06T19:27:19.467Z,21.98
2018-07-06T19:32:22.948Z,21.67
2018-07-06T19:37:27.470Z,21.55
2018-07-06T19:42:30.985Z,21.39
2018-07-06T19:47:34.501Z,21.23
2018-07-06T19:52:38.008Z,21.12
2018-07-06T19:57:41.661Z,20.98
2018-07-06T20:02:45.432Z,20.72
2018-07-06T20:07:49.149Z,20.57
2018-07-06T20:12:53.065Z,20.36
2018-07-06T20:17:56.728Z,20.18
2018-07-06T20:23:00.240Z,20.06
2018-07-06T20:28:03.905Z,19.96
2018-07-06T20:33:07.429Z,19.85
2018-07-06T20:38:11.061Z,19.78
2018-07-06T20:43:14.621Z,19.68
2018-07-06T20:48:19.104Z,19.57
2018-07-06T20:53:22.637Z,19.55
2018-07-06T20:58:26.232Z,19.45
2018-07-06T21:03:29.714Z,19.34
2018-07-06T21:08:33.282Z,19.41
2018-07-06T21:13:37.425Z,19.34
2018-07-06T21:18:41.064Z,19.15
2018-07-06T21:23:44.563Z,19.13
2018-07-06T21:28:48.451Z,18.97
2018-07-06T21:33:52.275Z,18.87
2018-07-06T21:38:56.629Z,18.87
2018-07-06T21:44:00.185Z,18.83
2018-07-06T21:49:04.045Z,18.76
2018-07-06T21:54:08.041Z,18.65
2018-07-06T21:59:11.619Z,18.49
2018-07-06T22:04:16.337Z,18.45
2018-07-06T22:09:19.962Z,18.24
2018-07-06T22:14:23.524Z,18.13
2018-07-06T22:19:27.419Z,18.02
2018-07-06T22:24:31.048Z,17.98
2018-07-06T22:29:34.620Z,17.85
2018-07-06T22:34:38.158Z,17.78
2018-07-06T22:39:41.743Z,17.58
2018-07-06T22:44:45.362Z,17.48
2018-07-06T22:49:49.061Z,17.47
2018-07-06T22:54:52.801Z,17.39
2018-07-06T22:59:56.547Z,17.33
2018-07-06T23:05:00.090Z,17.22
2018-07-06T23:10:05.088Z,17.10
2018-07-06T23:15:08.601Z,17.06
2018-07-06T23:20:12.788Z,16.90
2018-07-06T23:25:16.775Z,16.94
2018-07-06T23:30:30.441Z,16.90
2018-07-06T23:35:34.262Z,16.86
2018-07-06T23:40:37.844Z,16.76
2018-07-06T23:45:41.340Z,16.67
2018-07-06T23:50:45.041Z,16.67
2018-07-06T23:55:49.313Z,16.64
